createdAt,value
2023-02-17T00:00:09.138Z,47.37
2023-02-17T00:05:13.675Z,47.09
2023-02-17T00:10:18.814Z,46.89
2023-02-17T00:15:24.608Z,48.94
2023-02-17T00:20:30.907Z,48.06
2023-02-17T00:25:37.186Z,48.03
2023-02-17T00:30:43.444Z,48.00
2023-02-17T00:35:49.109Z,48.13
2023-02-17T00:40:56.544Z,47.97
2023-02-17T00:46:02.514Z,47.17
2023-02-17T00:51:08.955Z,47.69
2023-02-17T00:56:15.238Z,46.87
2023-02-17T01:01:22.735Z,47.87
2023-02-17T01:06:29.349Z,48.06
2023-02-17T01:11:36.263Z,48.18
2023-02-17T01:16:46.033Z,48.10
2023-02-17T01:21:52.179Z,47.39
2023-02-17T01:26:56.920Z,47.60
2023-02-17T01:32:05.949Z,47.86
2023-02-17T01:37:10.643Z,47.50
2023-02-17T01:42:21.254Z,47.02
2023-02-17T01:47:28.266Z,47.63
2023-02-17T01:52:34.622Z,46.39
2023-02-17T01:57:43.486Z,46.26
2023-02-17T02:09:31.133Z,46.71
2023-02-17T02:14:39.919Z,46.98
2023-02-17T02:19:51.162Z,46.12
2023-02-17T02:25:14.622Z,45.78
2023-02-17T02:30:43.735Z,46.04
2023-02-17T02:36:12.150Z,45.95
2023-02-17T02:41:31.253Z,45.73
2023-02-17T02:46:36.709Z,45.78
2023-02-17T02:51:43.414Z,45.52
2023-02-17T02:57:30.947Z,45.55
2023-02-17T03:02:54.423Z,45.55
2023-02-17T03:08:19.914Z,45.30
2023-02-17T03:13:24.772Z,45.30
2023-02-17T03:18:30.154Z,44.93
2023-02-17T03:23:35.353Z,45.02
2023-02-17T03:28:40.683Z,44.98
2023-02-17T03:33:47.334Z,44.53
2023-02-17T03:38:53.395Z,45.12
2023-02-17T03:43:58.053Z,45.11
2023-02-17T03:49:03.399Z,44.37
2023-02-17T03:54:09.154Z,44.91
2023-02-17T03:59:15.058Z,44.60
2023-02-17T04:04:19.764Z,44.45
2023-02-17T04:09:25.550Z,44.41
2023-02-17T04:14:30.985Z,44.15
2023-02-17T04:19:35.655Z,44.16
2023-02-17T04:24:40.871Z,43.84
2023-02-17T04:29:45.493Z,43.56
2023-02-17T04:34:51.103Z,43.86
2023-02-17T04:39:55.682Z,43.52
2023-02-17T04:45:01.114Z,43.90
2023-02-17T04:50:07.734Z,43.50
2023-02-17T04:55:11.831Z,43.69
2023-02-17T05:00:16.654Z,43.70
2023-02-17T05:05:22.332Z,43.55
2023-02-17T05:10:27.030Z,43.75
2023-02-17T05:15:34.785Z,43.46
2023-02-17T05:20:41.001Z,43.74
2023-02-17T05:25:45.670Z,43.25
2023-02-17T05:30:53.243Z,43.47
2023-02-17T05:35:58.034Z,43.31
2023-02-17T05:41:02.871Z,43.54
2023-02-17T05:46:08.086Z,43.32
2023-02-17T05:51:14.998Z,43.21
2023-02-17T05:56:19.837Z,43.45
2023-02-17T06:01:24.411Z,43.31
2023-02-17T06:06:29.100Z,43.18
2023-02-17T06:11:33.770Z,43.38
2023-02-17T06:16:38.465Z,43.07
2023-02-17T06:21:43.902Z,42.75
2023-02-17T06:26:48.441Z,43.16
2023-02-17T06:31:53.242Z,43.16
2023-02-17T06:36:58.204Z,42.82
2023-02-17T06:42:03.890Z,43.32
2023-02-17T06:47:08.567Z,42.41
2023-02-17T06:52:14.204Z,43.05
2023-02-17T06:57:19.329Z,43.03
2023-02-17T07:02:24.489Z,42.92
2023-02-17T07:07:30.781Z,42.93
2023-02-17T07:12:35.420Z,43.02
2023-02-17T07:17:40.985Z,42.49
2023-02-17T07:22:47.260Z,42.97
2023-02-17T07:27:51.809Z,42.76
2023-02-17T07:32:56.356Z,42.68
2023-02-17T07:38:01.929Z,42.25
2023-02-17T07:43:07.458Z,42.41
2023-02-17T07:48:13.145Z,42.91
2023-02-17T07:53:17.781Z,42.89
2023-02-17T07:58:22.499Z,42.58
2023-02-17T08:03:27.170Z,42.60
2023-02-17T08:08:50.335Z,43.12
2023-02-17T08:13:56.264Z,42.71
2023-02-17T08:19:00.905Z,42.89
2023-02-17T08:24:05.879Z,42.48
2023-02-17T08:29:11.432Z,42.65
2023-02-17T08:34:16.185Z,42.43
2023-02-17T08:39:21.377Z,42.46
2023-02-17T08:44:25.565Z,42.74
2023-02-17T08:49:33.130Z,42.66
2023-02-17T08:54:41.388Z,42.60
2023-02-17T08:59:49.230Z,42.68
2023-02-17T09:04:53.918Z,42.59
2023-02-17T09:09:59.231Z,42.89
2023-02-17T09:15:04.805Z,42.34
2023-02-17T09:20:23.862Z,42.88
2023-02-17T09:25:29.636Z,42.73
2023-02-17T09:30:34.558Z,42.59
2023-02-17T09:35:41.218Z,42.82
2023-02-17T09:40:51.533Z,42.98
2023-02-17T09:46:02.131Z,43.01
2023-02-17T09:51:20.659Z,42.94
2023-02-17T09:56:34.178Z,42.98
2023-02-17T10:01:39.948Z,42.96
2023-02-17T10:06:51.681Z,42.82
2023-02-17T10:12:08.119Z,42.82
2023-02-17T10:17:33.707Z,42.87
2023-02-17T10:22:38.493Z,43.21
2023-02-17T10:28:01.872Z,43.26
2023-02-17T10:33:34.952Z,43.34
2023-02-17T10:38:55.118Z,43.45
2023-02-17T10:44:01.854Z,43.42
2023-02-17T10:49:07.225Z,43.44
2023-02-17T10:54:34.493Z,43.40
2023-02-17T10:59:45.520Z,43.33
2023-02-17T11:04:53.958Z,43.64
2023-02-17T11:10:03.782Z,43.31
2023-02-17T11:15:37.175Z,43.77
2023-02-17T11:20:43.569Z,43.85
2023-02-17T11:26:01.993Z,43.85
2023-02-17T11:31:08.442Z,43.83
2023-02-17T11:36:28.195Z,44.04
2023-02-17T11:41:42.427Z,44.02
2023-02-17T11:47:11.632Z,44.21
2023-02-17T11:52:40.196Z,44.01
2023-02-17T11:58:07.811Z,45.50
2023-02-17T12:03:44.856Z,45.53
2023-02-17T12:09:28.518Z,45.83
2023-02-17T12:14:42.090Z,45.70
2023-02-17T12:20:08.247Z,45.58
2023-02-17T12:25:32.120Z,46.30
2023-02-17T12:31:04.332Z,46.99
2023-02-17T12:36:19.360Z,46.77
2023-02-17T12:41:44.554Z,47.22
2023-02-17T12:46:54.638Z,46.36
2023-02-17T12:52:10.090Z,47.61
2023-02-17T12:57:26.512Z,48.63
2023-02-17T13:02:32.108Z,48.75
2023-02-17T13:07:36.316Z,48.59
2023-02-17T13:12:42.997Z,47.34
2023-02-17T13:18:04.828Z,48.00
2023-02-17T13:23:16.027Z,47.42
2023-02-17T13:28:36.688Z,47.13
2023-02-17T13:34:01.647Z,47.84
2023-02-17T13:39:31.008Z,47.85
2023-02-17T13:44:44.684Z,47.34
2023-02-17T13:50:02.615Z,47.39
2023-02-17T13:55:09.788Z,47.60
2023-02-17T14:00:21.080Z,46.95
2023-02-17T14:05:47.915Z,47.46
2023-02-17T14:10:54.462Z,47.46
2023-02-17T14:16:02.230Z,46.82
2023-02-17T14:21:14.331Z,47.24
2023-02-17T14:26:45.327Z,47.38
2023-02-17T14:31:52.870Z,47.34
2023-02-17T14:37:09.021Z,47.89
2023-02-17T14:42:14.818Z,48.52
2023-02-17T14:47:20.068Z,48.16
2023-02-17T14:52:27.209Z,47.36
2023-02-17T14:57:33.558Z,46.81
2023-02-17T15:02:41.972Z,47.31
2023-02-17T15:07:47.118Z,47.05
2023-02-17T15:12:54.073Z,47.17
2023-02-17T15:18:02.305Z,47.76
2023-02-17T15:23:16.648Z,46.85
2023-02-17T15:28:22.741Z,47.56
2023-02-17T15:33:27.733Z,47.75
2023-02-17T15:38:32.593Z,48.31
2023-02-17T15:43:38.141Z,48.37
2023-02-17T15:48:44.145Z,48.04
2023-02-17T15:53:50.168Z,48.49
2023-02-17T15:58:56.084Z,48.26
2023-02-17T16:04:02.073Z,48.04
2023-02-17T16:09:07.228Z,47.18
2023-02-17T16:14:32.974Z,47.01
2023-02-17T16:19:39.021Z,47.25
2023-02-17T16:24:44.039Z,47.33
2023-02-17T16:29:48.743Z,47.91
2023-02-17T16:34:53.402Z,49.81
2023-02-17T16:39:57.417Z,50.33
2023-02-17T16:45:02.119Z,49.93
2023-02-17T16:50:10.547Z,50.64
2023-02-17T16:55:20.655Z,50.44
2023-02-17T17:00:29.129Z,50.62
2023-02-17T17:05:35.242Z,49.24
2023-02-17T17:10:41.796Z,50.05
2023-02-17T17:15:48.113Z,49.83
2023-02-17T17:20:54.792Z,49.46
2023-02-17T17:25:59.393Z,49.62
2023-02-17T17:31:06.361Z,49.35
2023-02-17T17:36:28.231Z,49.95
2023-02-17T17:41:33.393Z,51.26
2023-02-17T17:46:39.120Z,50.66
2023-02-17T17:51:44.297Z,50.54
2023-02-17T17:56:48.975Z,51.18
2023-02-17T18:01:53.741Z,50.38
2023-02-17T18:06:59.598Z,50.14
2023-02-17T18:12:10.378Z,50.44
2023-02-17T18:17:19.350Z,49.32
2023-02-17T18:22:26.291Z,50.78
2023-02-17T18:27:30.945Z,49.72
2023-02-17T18:32:37.078Z,49.08
2023-02-17T18:37:42.313Z,50.71
2023-02-17T18:42:48.620Z,50.36
2023-02-17T18:47:53.403Z,50.95
2023-02-17T18:52:58.111Z,51.21
2023-02-17T18:58:03.821Z,51.26
2023-02-17T19:03:08.508Z,51.26
2023-02-17T19:08:13.988Z,50.36
2023-02-17T19:13:18.633Z,50.74
2023-02-17T19:18:24.295Z,49.91
2023-02-17T19:23:28.946Z,49.63
2023-02-17T19:28:34.857Z,50.23
2023-02-17T19:33:40.533Z,50.79
2023-02-17T19:38:45.257Z,50.58
2023-02-17T19:43:52.014Z,50.76
2023-02-17T19:48:56.707Z,51.02
2023-02-17T19:54:02.824Z,51.21
2023-02-17T19:59:08.332Z,51.44
2023-02-17T20:04:13.402Z,51.23
2023-02-17T20:09:23.025Z,51.66
2023-02-17T20:14:27.668Z,51.19
2023-02-17T20:19:35.771Z,50.91
2023-02-17T20:24:43.180Z,50.95
2023-02-17T20:29:47.759Z,52.52
2023-02-17T20:34:52.766Z,50.62
2023-02-17T20:39:56.887Z,49.02
2023-02-17T20:45:01.706Z,51.19
2023-02-17T20:50:10.452Z,52.22
2023-02-17T20:55:16.742Z,51.70
2023-02-17T21:00:24.708Z,51.79
2023-02-17T21:05:29.680Z,51.97
2023-02-17T21:10:36.415Z,51.76
2023-02-17T21:15:41.262Z,51.44
2023-02-17T21:20:47.529Z,50.92
2023-02-17T21:25:52.090Z,51.12
2023-02-17T21:30:57.034Z,50.88
2023-02-17T21:36:08.563Z,50.23
2023-02-17T21:41:16.165Z,50.48
2023-02-17T21:46:23.071Z,50.09
2023-02-17T21:51:28.945Z,52.51
2023-02-17T21:56:33.831Z,51.15
2023-02-17T22:01:38.939Z,51.59
2023-02-17T22:06:43.409Z,51.13
2023-02-17T22:11:48.774Z,51.97
2023-02-17T22:16:53.385Z,52.20
2023-02-17T22:21:57.956Z,51.16
2023-02-17T22:27:03.662Z,51.14
2023-02-17T22:32:10.570Z,51.17
2023-02-17T22:37:15.281Z,51.67
2023-02-17T22:42:19.852Z,50.40
2023-02-17T22:47:24.566Z,52.01
2023-02-17T22:52:29.971Z,51.85
2023-02-17T22:57:34.574Z,51.88
2023-02-17T23:02:39.119Z,52.22
2023-02-17T23:07:44.694Z,51.91
2023-02-17T23:12:49.287Z,52.65
2023-02-17T23:17:58.618Z,51.98
2023-02-17T23:23:04.866Z,52.06
2023-02-17T23:28:09.673Z,51.74
2023-02-17T23:33:14.269Z,51.58
2023-02-17T23:38:22.030Z,52.03
2023-02-17T23:43:26.798Z,53.31
2023-02-17T23:48:32.887Z,51.53
2023-02-17T23:53:38.932Z,52.50
2023-02-17T23:58:45.464Z,51.47
